| time (UTC) | temp C | wind direction | speed KPH | gust KPH | rain 1hr cm | rain 24hr cm | rain mn cm | humidity % | barometer mb |
| 20260506140051 | 19 | 0 | 1.6 | 11.3 | 0.00 | 0.00 | 0.00 | 72 | 1008.2 |
| 20260506134552 | 19 | 236 | 3.2 | 11.3 | 0.00 | 0.00 | 0.00 | 72 | 1008.1 |
| 20260506133106 | 20 | 123 | 1.6 | 8.0 | 0.00 | 0.00 | 0.00 | 71 | 1007.9 |
| 20260506131603 | 19 | 271 | 3.2 | 8.0 | 0.00 | 0.00 | 0.00 | 72 | 1007.6 |
| 20260506130058 | 19 | 193 | 3.2 | 9.7 | 0.00 | 0.00 | 0.00 | 74 | 1007.6 |
| 20260506124556 | 19 | 200 | 1.6 | 8.0 | 0.00 | 0.00 | 0.00 | 74 | 1007.7 |
| 20260506123056 | 18 | 186 | 1.6 | 4.8 | 0.00 | 0.00 | 0.00 | 75 | 1007.8 |
| 20260506121556 | 18 | 205 | 1.6 | 4.8 | 0.00 | 0.00 | 0.00 | 75 | 1007.8 |
| 20260506120100 | 18 | 225 | 1.6 | 8.0 | 0.00 | 0.00 | 0.00 | 76 | 1007.9 |
| 20260506114548 | 18 | 0 | 1.6 | 6.4 | 0.00 | 0.00 | 0.00 | 75 | 1008.0 |
| 20260506113051 | 18 | 0 | 0.0 | 4.8 | 0.00 | 0.00 | 0.00 | 75 | 1007.6 |
| 20260506111552 | 18 | 0 | 1.6 | 4.8 | 0.00 | 0.00 | 0.00 | 75 | 1007.7 |
| 20260506110101 | 17 | 113 | 0.0 | 4.8 | 0.00 | 0.00 | 0.00 | 74 | 1007.7 |
| 20260506104603 | 17 | 217 | 0.0 | 3.2 | 0.00 | 0.00 | 0.00 | 74 | 1007.6 |
| 20260506103049 | 17 | 0 | 0.0 | 4.8 | 0.00 | 0.00 | 0.00 | 74 | 1007.7 |
| 20260506101553 | 17 | 166 | 0.0 | 6.4 | 0.00 | 0.00 | 0.00 | 73 | 1007.4 |
| 20260506100058 | 17 | 184 | 0.0 | 3.2 | 0.00 | 0.00 | 0.00 | 73 | 1007.4 |
| 20260506094556 | 17 | 164 | 1.6 | 6.4 | 0.00 | 0.00 | 0.00 | 72 | 1007.4 |
| 20260506093047 | 17 | 173 | 1.6 | 3.2 | 0.00 | 0.00 | 0.00 | 73 | 1007.6 |
| 20260506091551 | 16 | 147 | 0.0 | 6.4 | 0.00 | 0.00 | 0.00 | 74 | 1007.4 |
| 20260506090051 | 17 | 178 | 1.6 | 3.2 | 0.00 | 0.00 | 0.00 | 73 | 1007.4 |
| 20260506084616 | 17 | 178 | 0.0 | 3.2 | 0.00 | 0.00 | 0.00 | 70 | 1007.6 |
| 20260506083056 | 18 | 0 | 0.0 | 1.6 | 0.00 | 0.00 | 0.00 | 68 | 1007.7 |
| 20260506081558 | 19 | 175 | 0.0 | 4.8 | 0.00 | 0.00 | 0.00 | 65 | 1007.7 |
| 20260506073052 | 19 | 188 | 1.6 | 4.8 | 0.00 | 0.00 | 0.00 | 65 | 1007.8 |
| 20260506071559 | 19 | 186 | 1.6 | 4.8 | 0.00 | 0.00 | 0.00 | 64 | 1007.7 |
| 20260506061557 | 19 | 232 | 0.0 | 6.4 | 0.00 | 0.00 | 0.00 | 64 | 1008.2 |
| 20260506044550 | 18 | 194 | 0.0 | 3.2 | 0.00 | 0.00 | 0.00 | 67 | 1008.4 |
| 20260506043050 | 18 | 0 | 0.0 | 0.0 | 0.00 | 0.00 | 0.00 | 67 | 1008.5 |
| 20260506041602 | 18 | 0 | 0.0 | 0.0 | 0.00 | 0.00 | 0.00 | 67 | 1008.4 |
| 20260506040050 | 18 | 0 | 0.0 | 0.0 | 0.00 | 0.00 | 0.00 | 67 | 1008.2 |
| 20260506034554 | 19 | 0 | 0.0 | 0.0 | 0.00 | 0.00 | 0.00 | 66 | 1008.3 |
| 20260506033049 | 19 | 0 | 0.0 | 1.6 | 0.00 | 0.00 | 0.00 | 65 | 1008.1 |
| 20260506031555 | 20 | 0 | 0.0 | 1.6 | 0.00 | 0.00 | 0.00 | 63 | 1008.2 |
| 20260506030049 | 20 | 0 | 0.0 | 3.2 | 0.00 | 0.00 | 0.00 | 61 | 1008.2 |
| 20260506024556 | 20 | 0 | 0.0 | 0.0 | 0.00 | 0.00 | 0.00 | 61 | 1008.2 |
| 20260506023109 | 21 | 0 | 0.0 | 0.0 | 0.00 | 0.00 | 0.00 | 59 | 1008.1 |
| 20260506021611 | 21 | 0 | 0.0 | 3.2 | 0.00 | 0.00 | 0.00 | 57 | 1007.9 |
| 20260506020057 | 21 | 0 | 0.0 | 3.2 | 0.00 | 0.00 | 0.00 | 53 | 1007.9 |
| 20260506014557 | 21 | 0 | 0.0 | 1.6 | 0.00 | 0.00 | 0.00 | 52 | 1007.8 |
| 20260506013108 | 22 | 0 | 0.0 | 3.2 | 0.00 | 0.00 | 0.00 | 51 | 1007.5 |
| 20260506011615 | 23 | 0 | 0.0 | 3.2 | 0.00 | 0.00 | 0.00 | 49 | 1007.3 |
| 20260506010057 | 23 | 0 | 0.0 | 4.8 | 0.00 | 0.00 | 0.00 | 45 | 1007.2 |
| 20260506004554 | 24 | 294 | 0.0 | 4.8 | 0.00 | 0.00 | 0.00 | 43 | 1007.1 |
| 20260506003056 | 24 | 213 | 1.6 | 9.7 | 0.00 | 0.00 | 0.00 | 42 | 1007.0 |
| 20260506001556 | 25 | 177 | 1.6 | 9.7 | 0.00 | 0.00 | 0.00 | 41 | 1006.9 |
| 20260506000053 | 25 | 223 | 3.2 | 11.3 | 0.00 | 0.00 | 0.00 | 40 | 1006.8 |
| 20260505234551 | 25 | 0 | 3.2 | 11.3 | 0.00 | 0.00 | 0.00 | 40 | 1006.7 |
| 20260505233051 | 25 | 209 | 1.6 | 8.0 | 0.00 | 0.00 | 0.00 | 40 | 1006.5 |
| 20260505231604 | 25 | 225 | 1.6 | 6.4 | 0.00 | 0.00 | 0.00 | 39 | 1006.2 |
| 20260505230051 | 26 | 179 | 4.8 | 12.9 | 0.00 | 0.00 | 0.00 | 38 | 1006.3 |
| 20260505224552 | 26 | 207 | 4.8 | 16.1 | 0.00 | 0.00 | 0.00 | 37 | 1006.0 |
| 20260505223057 | 26 | 0 | 1.6 | 9.7 | 0.00 | 0.00 | 0.00 | 37 | 1005.7 |
| 20260505221551 | 26 | 194 | 4.8 | 20.9 | 0.00 | 0.00 | 0.00 | 36 | 1005.6 |
| 20260505220059 | 26 | 212 | 3.2 | 11.3 | 0.00 | 0.00 | 0.00 | 35 | 1005.6 |
| 20260505214556 | 27 | 200 | 1.6 | 12.9 | 0.00 | 0.00 | 0.00 | 35 | 1005.4 |
| 20260505213049 | 27 | 207 | 3.2 | 12.9 | 0.00 | 0.00 | 0.00 | 36 | 1005.1 |
| 20260505211552 | 27 | 0 | 4.8 | 12.9 | 0.00 | 0.00 | 0.00 | 36 | 1005.1 |
| 20260505210051 | 28 | 187 | 6.4 | 16.1 | 0.00 | 0.00 | 0.00 | 34 | 1005.2 |
| 20260505204551 | 28 | 213 | 4.8 | 16.1 | 0.00 | 0.00 | 0.00 | 34 | 1004.9 |
| 20260505203107 | 28 | 241 | 6.4 | 24.1 | 0.00 | 0.00 | 0.00 | 36 | 1004.8 |
| 20260505201600 | 28 | 289 | 6.4 | 20.9 | 0.00 | 0.00 | 0.00 | 33 | 1005.0 |
| 20260505200054 | 28 | 228 | 4.8 | 19.3 | 0.00 | 0.00 | 0.00 | 35 | 1005.3 |
| 20260505194551 | 28 | 144 | 9.7 | 29.0 | 0.00 | 0.00 | 0.00 | 35 | 1005.4 |
| 20260505193048 | 28 | 181 | 3.2 | 16.1 | 0.00 | 0.00 | 0.00 | 36 | 1005.6 |
| 20260505191601 | 28 | 201 | 6.4 | 22.5 | 0.00 | 0.00 | 0.00 | 36 | 1005.7 |
| 20260505190050 | 28 | 253 | 6.4 | 22.5 | 0.00 | 0.00 | 0.00 | 35 | 1005.8 |
| 20260505184553 | 28 | 23 | 9.7 | 20.9 | 0.00 | 0.00 | 0.00 | 38 | 1005.9 |
| 20260505183054 | 28 | 192 | 3.2 | 17.7 | 0.00 | 0.00 | 0.00 | 38 | 1006.1 |
| 20260505181550 | 28 | 211 | 4.8 | 27.4 | 0.00 | 0.00 | 0.00 | 41 | 1006.4 |
| 20260505180100 | 29 | 185 | 3.2 | 17.7 | 0.00 | 0.00 | 0.00 | 39 | 1006.5 |
| 20260505174555 | 29 | 241 | 3.2 | 14.5 | 0.00 | 0.00 | 0.00 | 42 | 1006.6 |
| 20260505173059 | 28 | 236 | 3.2 | 27.4 | 0.00 | 0.00 | 0.00 | 41 | 1006.9 |
| 20260505171554 | 28 | 202 | 4.8 | 16.1 | 0.00 | 0.00 | 0.00 | 43 | 1006.9 |
| 20260505170110 | 27 | 271 | 4.8 | 14.5 | 0.00 | 0.00 | 0.00 | 43 | 1007.2 |
| 20260505164557 | 27 | 173 | 3.2 | 16.1 | 0.00 | 0.00 | 0.00 | 45 | 1007.5 |
| 20260505163102 | 27 | 158 | 3.2 | 11.3 | 0.00 | 0.00 | 0.00 | 46 | 1007.7 |
| 20260505161616 | 27 | 190 | 1.6 | 11.3 | 0.00 | 0.00 | 0.00 | 46 | 1007.8 |
| 20260505153106 | 26 | 250 | 3.2 | 12.9 | 0.00 | 0.00 | 0.00 | 50 | 1008.4 |
| 20260505151604 | 25 | 212 | 3.2 | 9.7 | 0.00 | 0.00 | 0.00 | 52 | 1008.4 |